Time;durP1;ratioP1;P1;durP2;ratioP2;P2;SDS_P1;SDS_P2;PMS_P1;PMS_P2;Temp;Humidity;BMP_temperature;BMP_pressure;BME280_temperature;BME280_humidity;BME280_pressure;Samples;Min_cycle;Max_cycle;Signal;HPM_P1;HPM_P2
2021/03/26 00:01:43;;;;;;;13.48;8.93;;;;;;;3.94;53.50;99749.19;5013316;28;20036;-63
2021/03/26 00:04:11;;;;;;;14.30;8.75;;;;;;;3.58;53.15;99687.56;5012649;28;20042;-63
2021/03/26 00:06:42;;;;;;;14.73;8.85;;;;;;;3.95;53.77;99753.56;5012557;28;20034;-64
2021/03/26 00:09:11;;;;;;;15.85;9.95;;;;;;;3.95;53.18;99758.84;5012368;28;20440;-64
2021/03/26 00:11:37;;;;;;;16.00;9.18;;;;;;;3.95;53.20;99774.75;5012657;28;20055;-63
2021/03/26 00:14:03;;;;;;;18.15;9.60;;;;;;;3.95;53.35;99759.69;5012635;28;20041;-64
2021/03/26 00:16:28;;;;;;;15.80;9.02;;;;;;;3.93;53.10;99755.44;5012726;28;20045;-63
2021/03/26 00:18:54;;;;;;;16.33;9.02;;;;;;;3.90;53.17;99755.63;5012545;28;20115;-64
2021/03/26 00:21:21;;;;;;;13.45;8.77;;;;;;;3.80;53.29;99755.25;5012092;28;20049;-63
2021/03/26 00:23:47;;;;;;;14.73;9.05;;;;;;;3.89;53.29;99765.34;5012259;28;20037;-64
2021/03/26 00:26:13;;;;;;;15.63;9.55;;;;;;;3.87;53.16;99757.50;5012262;28;20466;-63
2021/03/26 00:28:38;;;;;;;18.35;8.90;;;;;;;3.86;53.56;99763.72;5012043;28;20196;-65
2021/03/26 00:31:04;;;;;;;14.52;8.70;;;;;;;3.83;53.87;99766.50;5012113;28;20038;-63
2021/03/26 00:33:30;;;;;;;18.65;9.98;;;;;;;3.81;53.37;99763.09;5011496;28;20041;-58
2021/03/26 00:35:56;;;;;;;14.35;8.80;;;;;;;3.86;53.45;99771.69;5012072;28;20038;-63
2021/03/26 00:38:23;;;;;;;18.75;8.43;;;;;;;3.72;53.87;99739.75;5011859;28;20109;-63
2021/03/26 00:40:49;;;;;;;14.88;9.10;;;;;;;3.83;53.92;99760.38;5012684;28;20045;-63
2021/03/26 00:43:15;;;;;;;14.63;8.55;;;;;;;3.76;53.30;99754.53;5011689;28;20420;-62
2021/03/26 00:45:40;;;;;;;14.30;8.23;;;;;;;3.81;53.62;99778.97;5011991;28;20077;-63
2021/03/26 00:48:17;;;;;;;15.75;8.18;;;;;;;3.80;53.75;99761.38;5011379;28;20029;-64
2021/03/26 00:50:46;;;;;;;16.15;8.13;;;;;;;3.78;53.82;99759.78;5011765;28;20042;-63
2021/03/26 00:53:15;;;;;;;17.42;8.75;;;;;;;3.77;53.83;99756.25;5012819;28;20044;-63
2021/03/26 00:55:41;;;;;;;16.30;8.00;;;;;;;3.78;54.11;99768.56;5011161;28;20038;-63
2021/03/26 00:58:07;;;;;;;16.20;7.90;;;;;;;3.64;54.09;99744.63;5011592;28;20490;-63
2021/03/26 01:00:36;;;;;;;16.73;8.65;;;;;;;3.77;53.99;99753.59;5012109;28;20490;-63
2021/03/26 01:03:16;;;;;;;17.83;8.07;;;;;;;3.74;53.92;99756.44;5010819;28;20033;-65
2021/03/26 01:05:46;;;;;;;20.65;9.27;;;;;;;3.62;54.45;99739.41;5011011;28;20045;-62
2021/03/26 01:08:12;;;;;;;16.25;8.43;;;;;;;3.64;54.25;99734.88;5011539;28;20064;-63
2021/03/26 01:10:47;;;;;;;17.63;8.32;;;;;;;3.72;54.47;99753.84;5011735;28;20481;-64
2021/03/26 01:13:16;;;;;;;14.23;8.37;;;;;;;3.72;53.90;99758.31;5010852;28;20044;-64
2021/03/26 01:15:43;;;;;;;14.73;8.07;;;;;;;3.28;53.76;99689.09;5011152;28;20117;-60
2021/03/26 01:18:14;;;;;;;14.00;8.20;;;;;;;3.68;54.47;99759.41;5011197;28;20436;-62
2021/03/26 01:20:39;;;;;;;12.85;7.95;;;;;;;3.65;54.43;99756.94;5011328;28;20030;-63
2021/03/26 01:23:06;;;;;;;14.43;8.02;;;;;;;3.70;54.40;99773.41;5010920;28;20426;-63
2021/03/26 01:25:38;;;;;;;13.95;8.23;;;;;;;3.67;54.56;99760.34;5011087;28;20076;-64
2021/03/26 01:28:04;;;;;;;16.95;8.43;;;;;;;3.61;54.30;99753.56;5011495;28;20533;-63
2021/03/26 01:30:31;;;;;;;14.70;8.52;;;;;;;3.66;54.18;99772.72;5010605;28;20029;-62
2021/03/26 01:32:57;;;;;;;16.55;7.55;;;;;;;3.63;54.64;99769.41;5011047;28;20045;-63
2021/03/26 01:35:24;;;;;;;14.75;8.50;;;;;;;3.64;54.32;99777.25;5011512;28;20034;-64
2021/03/26 01:37:49;;;;;;;17.40;8.95;;;;;;;3.64;54.47;99765.81;5011212;28;20041;-66
2021/03/26 01:40:20;;;;;;;20.40;8.35;;;;;;;3.54;54.60;99754.84;5014888;28;20034;-64
2021/03/26 01:42:46;;;;;;;18.08;9.18;;;;;;;3.57;54.40;99758.16;5010584;28;20036;-64
2021/03/26 01:45:17;;;;;;;19.17;9.05;;;;;;;3.10;54.92;99682.13;5010490;28;20038;-64
2021/03/26 01:47:45;;;;;;;17.80;8.88;;;;;;;3.18;54.48;99701.13;5010650;28;20470;-62
2021/03/26 01:50:14;;;;;;;14.45;8.32;;;;;;;3.53;54.92;99766.38;5010315;28;20046;-63
2021/03/26 01:52:42;;;;;;;17.38;8.80;;;;;;;3.41;54.32;99749.34;5010411;28;20061;-63
2021/03/26 01:55:09;;;;;;;16.13;9.02;;;;;;;3.47;55.05;99767.53;5010386;28;20354;-64
2021/03/26 01:57:36;;;;;;;17.95;9.02;;;;;;;3.34;54.52;99747.94;5010739;28;20057;-65
2021/03/26 02:00:05;;;;;;;16.00;8.43;;;;;;;3.37;55.25;99759.22;5009677;28;20025;-62
2021/03/26 02:02:32;;;;;;;18.13;8.50;;;;;;;3.39;55.29;99757.34;5010198;28;20578;-62
2021/03/26 02:04:57;;;;;;;17.80;9.30;;;;;;;3.32;55.31;99761.25;5010734;28;20401;-63
2021/03/26 02:07:23;;;;;;;17.33;9.00;;;;;;;3.33;55.25;99775.31;5010756;28;20037;-65
2021/03/26 02:09:49;;;;;;;17.13;9.13;;;;;;;3.29;55.01;99778.13;5010243;28;20068;-62
2021/03/26 02:12:24;;;;;;;19.50;9.48;;;;;;;3.19;55.59;99760.16;5010165;28;20080;-62
2021/03/26 02:14:54;;;;;;;18.00;8.95;;;;;;;3.21;55.87;99769.75;5010697;28;20065;-62
2021/03/26 02:17:24;;;;;;;16.92;9.20;;;;;;;2.95;55.77;99732.25;5009940;28;20038;-61
2021/03/26 02:20:03;;;;;;;18.08;8.82;;;;;;;3.17;56.19;99776.13;5009990;28;20065;-62
2021/03/26 02:22:31;;;;;;;16.67;9.05;;;;;;;3.06;55.80;99762.56;5010463;28;20387;-63
2021/03/26 02:24:58;;;;;;;19.20;8.90;;;;;;;3.08;55.82;99768.63;5010090;28;20065;-61
2021/03/26 02:27:31;;;;;;;19.30;9.15;;;;;;;3.03;56.64;99771.53;5009800;28;20045;-63
2021/03/26 02:29:58;;;;;;;16.83;9.27;;;;;;;3.02;55.91;99769.81;5010550;28;20030;-63
2021/03/26 02:32:27;;;;;;;19.40;9.00;;;;;;;3.04;56.31;99775.91;5009895;28;20053;-60
2021/03/26 02:35:17;;;;;;;16.35;8.65;;;;;;;3.01;56.42;99784.81;5009621;28;20141;-60
2021/03/26 02:38:02;;;;;;;19.63;9.52;;;;;;;2.93;56.83;99776.44;5008593;28;20044;-61
2021/03/26 02:40:43;;;;;;;22.35;9.02;;;;;;;2.96;56.96;99794.78;5010338;28;20093;-63
2021/03/26 02:43:37;;;;;;;28.98;9.32;;;;;;;2.93;57.38;99796.72;5008398;28;20038;-63
2021/03/26 02:46:33;;;;;;;16.80;9.07;;;;;;;2.93;57.16;99796.72;5008877;28;20049;-61
2021/03/26 02:49:04;;;;;;;17.30;9.15;;;;;;;2.86;57.45;99780.28;5010105;28;20033;-62
2021/03/26 02:51:36;;;;;;;20.65;9.65;;;;;;;2.76;57.13;99787.81;5009734;28;20052;-62
2021/03/26 02:54:10;;;;;;;18.63;9.63;;;;;;;2.82;57.40;99807.81;5009513;28;20035;-61
2021/03/26 02:56:42;;;;;;;18.10;9.80;;;;;;;2.72;57.20;99797.69;5009310;28;20033;-64
2021/03/26 02:59:21;;;;;;;16.92;9.60;;;;;;;2.76;57.52;99802.84;5007699;28;20656;-62
2021/03/26 03:01:56;;;;;;;17.33;9.68;;;;;;;2.73;57.82;99806.47;5009580;28;20030;-62
2021/03/26 03:04:33;;;;;;;21.52;9.95;;;;;;;2.68;57.81;99788.22;5009742;28;20425;-64
2021/03/26 03:07:23;;;;;;;16.58;9.70;;;;;;;2.70;57.66;99810.13;5007547;28;20144;-63
2021/03/26 03:09:55;;;;;;;18.60;9.77;;;;;;;2.67;57.23;99809.41;5008978;28;20037;-61
2021/03/26 03:12:29;;;;;;;18.45;10.23;;;;;;;2.61;57.70;99805.28;5009914;28;20069;-62
2021/03/26 03:15:29;;;;;;;21.05;10.60;;;;;;;2.67;57.84;99797.06;5009653;28;20448;-62
2021/03/26 03:18:02;;;;;;;19.33;10.55;;;;;;;2.55;57.67;99789.72;5008656;28;20040;-60
2021/03/26 03:20:37;;;;;;;21.77;10.80;;;;;;;2.64;57.67;99799.00;5009682;28;20536;-62
2021/03/26 03:23:15;;;;;;;20.75;11.15;;;;;;;2.69;57.86;99800.50;5007424;28;20149;-63
2021/03/26 03:25:42;;;;;;;20.45;10.80;;;;;;;2.67;56.92;99796.19;5008725;28;20074;-60
2021/03/26 03:28:17;;;;;;;22.17;11.65;;;;;;;2.71;58.25;99792.47;5007739;28;20088;-63
2021/03/26 03:31:16;;;;;;;17.77;11.10;;;;;;;2.76;58.08;99795.75;5009597;28;20046;-62
2021/03/26 03:34:02;;;;;;;20.83;10.93;;;;;;;2.79;57.58;99794.75;4998718;28;20034;-60
2021/03/26 03:36:43;;;;;;;21.13;11.18;;;;;;;2.51;58.03;99751.16;5009552;28;20034;-61
2021/03/26 03:39:27;;;;;;;26.45;11.15;;;;;;;2.84;57.74;99803.31;5009086;28;20038;-62
2021/03/26 03:42:28;;;;;;;23.17;10.82;;;;;;;2.95;57.36;99798.34;5009332;28;20543;-62
2021/03/26 03:45:03;;;;;;;19.95;10.65;;;;;;;3.16;56.81;99801.72;5011618;28;20409;-62
2021/03/26 03:47:45;;;;;;;22.58;10.90;;;;;;;3.72;55.15;99795.38;4996474;28;20554;-62
2021/03/26 03:50:32;;;;;;;20.85;11.10;;;;;;;4.55;53.55;99789.13;5009310;28;20048;-62
2021/03/26 03:53:17;;;;;;;21.30;10.05;;;;;;;4.74;52.63;99791.63;5009844;28;20030;-63
2021/03/26 03:55:57;;;;;;;20.55;11.00;;;;;;;4.93;51.54;99793.19;5008681;28;20034;-63
2021/03/26 03:58:44;;;;;;;23.00;10.88;;;;;;;5.52;50.04;99806.56;5008083;28;20029;-64
2021/03/26 04:01:18;;;;;;;16.63;10.38;;;;;;;5.99;48.61;99791.34;5007856;28;20556;-63
2021/03/26 04:03:57;;;;;;;21.02;11.10;;;;;;;6.16;48.46;99789.47;5008816;28;20064;-63
2021/03/26 04:06:47;;;;;;;15.93;9.65;;;;;;;6.14;48.05;99802.84;5008899;28;20037;-63
2021/03/26 04:09:16;;;;;;;19.30;10.32;;;;;;;5.99;48.50;99798.44;5007421;28;20054;-64
2021/03/26 04:11:44;;;;;;;19.80;10.95;;;;;;;5.85;48.44;99786.88;5009118;28;20040;-63
2021/03/26 04:14:21;;;;;;;22.00;11.20;;;;;;;5.80;48.31;99770.38;5009062;28;20386;-65
2021/03/26 04:17:00;;;;;;;26.90;12.00;;;;;;;5.56;48.29;99717.81;5009035;28;20493;-63
2021/03/26 04:19:36;;;;;;;19.27;12.05;;;;;;;6.32;48.24;99797.31;5008450;28;20033;-62
2021/03/26 04:22:10;;;;;;;23.77;12.40;;;;;;;6.45;47.86;99800.91;5009164;28;20078;-60
2021/03/26 04:24:46;;;;;;;22.42;11.63;;;;;;;6.75;47.25;99812.31;5012293;28;20038;-62
2021/03/26 04:27:14;;;;;;;;;;;;;;;7.23;46.11;99816.31;5011603;28;20033;-63
2021/03/26 04:29:55;;;;;;;26.13;11.80;;;;;;;7.46;45.40;99812.09;5012214;28;19924;-62
2021/03/26 04:32:22;;;;;;;19.92;12.40;;;;;;;7.63;45.12;99800.31;5012373;28;20112;-63
2021/03/26 04:34:49;;;;;;;20.88;12.70;;;;;;;7.80;44.54;99777.81;5012093;28;20041;-64
2021/03/26 04:37:18;;;;;;;19.23;12.15;;;;;;;8.19;44.02;99804.44;5012361;28;20469;-61
2021/03/26 04:39:58;;;;;;;20.55;12.23;;;;;;;8.36;43.46;99805.88;5011567;28;20026;-63
2021/03/26 04:42:35;;;;;;;17.63;10.45;;;;;;;8.46;43.04;99806.94;5006863;28;20180;-64
2021/03/26 04:45:10;;;;;;;17.15;10.82;;;;;;;8.57;43.15;99805.34;5009672;28;20089;-59
2021/03/26 04:47:45;;;;;;;19.58;10.82;;;;;;;8.69;42.61;99815.13;5011573;28;20642;-63
2021/03/26 04:50:26;;;;;;;22.65;10.55;;;;;;;8.86;42.36;99819.22;5012044;28;20529;-62
2021/03/26 04:53:00;;;;;;;18.25;10.75;;;;;;;8.88;42.19;99813.75;5010625;28;20068;-63
2021/03/26 04:55:34;;;;;;;17.90;10.90;;;;;;;8.89;41.74;99807.44;4998642;28;20030;-63
2021/03/26 04:58:17;;;;;;;20.40;10.38;;;;;;;9.07;41.98;99812.41;5011649;28;20034;-63
2021/03/26 05:00:47;;;;;;;14.52;10.25;;;;;;;9.13;41.50;99809.25;5012105;28;20030;-64
2021/03/26 05:03:25;;;;;;;17.70;10.25;;;;;;;9.40;41.05;99821.50;5010654;28;20134;-62
2021/03/26 05:05:57;;;;;;;20.48;10.32;;;;;;;9.49;40.85;99823.50;5014171;28;20568;-63
2021/03/26 05:08:24;;;;;;;16.65;10.15;;;;;;;9.83;40.19;99828.06;5017478;28;20045;-62
2021/03/26 05:10:52;;;;;;;17.67;9.55;;;;;;;10.14;39.68;99833.69;5011522;28;20045;-63
2021/03/26 05:13:32;;;;;;;14.55;9.65;;;;;;;10.39;38.97;99840.63;5010570;28;20036;-61
2021/03/26 05:16:20;;;;;;;16.83;9.70;;;;;;;10.30;39.19;99830.63;5011784;28;20036;-62
2021/03/26 05:18:53;;;;;;;17.50;10.00;;;;;;;10.18;38.97;99846.72;5011067;28;21464;-64
2021/03/26 05:21:30;;;;;;;18.75;10.15;;;;;;;9.96;39.28;99855.53;5010033;28;20037;-67
2021/03/26 05:24:16;;;;;;;18.63;10.18;;;;;;;9.76;39.85;99835.72;5009214;28;20038;-64
2021/03/26 05:26:41;;;;;;;14.38;9.13;;;;;;;9.61;40.11;99851.09;5009743;28;20520;-65
2021/03/26 05:29:08;;;;;;;15.68;9.70;;;;;;;9.43;40.54;99840.00;5006751;28;20049;-61
2021/03/26 05:31:52;;;;;;;16.27;9.35;;;;;;;9.29;40.69;99841.88;5004450;28;20041;-63
2021/03/26 05:34:28;;;;;;;22.40;10.63;;;;;;;9.22;40.98;99859.34;5009031;28;20076;-62
2021/03/26 05:37:06;;;;;;;;;;;;;;;9.37;40.54;99861.81;5008959;28;20053;-62
2021/03/26 05:39:35;;;;;;;17.08;10.25;;;;;;;8.98;41.07;99859.34;5005338;28;20341;-61
2021/03/26 05:42:37;;;;;;;18.45;9.18;;;;;;;8.78;41.68;99864.31;5005027;28;20030;-64
2021/03/26 05:45:14;;;;;;;19.10;10.45;;;;;;;8.23;42.63;99842.41;5006574;28;20048;-62
2021/03/26 05:47:59;;;;;;;19.27;10.60;;;;;;;8.21;42.87;99876.34;5004888;28;21033;-62
2021/03/26 05:50:43;;;;;;;16.52;10.45;;;;;;;8.07;43.24;99872.81;5006523;28;20038;-60
2021/03/26 05:53:14;;;;;;;20.98;11.38;;;;;;;7.93;43.70;99878.25;5005411;28;20038;-62
2021/03/26 05:55:51;;;;;;;22.20;11.98;;;;;;;7.81;43.68;99871.94;5005582;28;20030;-61
2021/03/26 05:58:54;;;;;;;19.77;10.98;;;;;;;7.77;44.25;99866.00;5006887;28;20124;-60
2021/03/26 06:01:47;;;;;;;21.58;12.00;;;;;;;7.69;44.33;99870.97;5010484;28;20477;-62
2021/03/26 06:04:49;;;;;;;19.45;11.40;;;;;;;7.65;44.48;99865.00;5010424;28;20041;-60
2021/03/26 06:07:25;;;;;;;19.25;12.18;;;;;;;7.65;44.83;99866.81;5010147;28;20042;-60
2021/03/26 06:10:24;;;;;;;22.70;11.25;;;;;;;7.71;44.62;99864.59;5010510;28;20053;-61
2021/03/26 06:12:53;;;;;;;19.73;11.70;;;;;;;7.66;44.60;99855.19;5008896;28;20042;-59
2021/03/26 06:15:18;;;;;;;20.48;11.77;;;;;;;7.66;44.37;99850.72;5009909;28;20042;-60
2021/03/26 06:17:49;;;;;;;20.98;11.88;;;;;;;7.73;44.21;99852.00;5009888;28;20047;-60
2021/03/26 06:20:27;;;;;;;23.88;12.15;;;;;;;7.80;44.30;99851.56;5010176;28;20061;-59
2021/03/26 06:23:04;;;;;;;17.77;11.05;;;;;;;7.87;44.09;99855.56;5009436;28;20127;-60
2021/03/26 06:25:44;;;;;;;27.63;11.65;;;;;;;8.05;44.09;99858.75;4997965;28;20045;-62
2021/03/26 06:29:02;;;;;;;20.35;11.60;;;;;;;8.30;43.52;99849.03;5010181;28;20112;-60
2021/03/26 06:31:56;;;;;;;21.75;10.82;;;;;;;8.60;42.48;99834.47;4988964;28;20069;-59
2021/03/26 06:34:34;;;;;;;21.40;11.52;;;;;;;8.81;42.14;99828.53;5008349;28;20041;-61
2021/03/26 06:37:18;;;;;;;19.27;11.85;;;;;;;12.10;37.04;99833.78;5010007;28;20116;-63
2021/03/26 06:40:12;;;;;;;20.52;10.98;;;;;;;16.88;28.95;99828.34;5008471;28;20025;-61
2021/03/26 06:42:55;;;;;;;20.75;11.50;;;;;;;21.95;23.19;99818.09;5008495;28;20091;-61
2021/03/26 06:45:49;;;;;;;19.00;11.07;;;;;;;24.84;20.01;99846.91;4995115;28;20034;-62
2021/03/26 06:48:38;;;;;;;18.40;11.85;;;;;;;25.92;17.41;99847.06;5010148;28;20049;-60
2021/03/26 06:51:12;;;;;;;18.80;12.02;;;;;;;25.51;18.39;99850.16;5007324;28;20034;-61
2021/03/26 06:54:10;;;;;;;22.85;13.27;;;;;;;24.46;19.49;99860.31;5009871;28;20041;-58
2021/03/26 06:57:14;;;;;;;25.13;12.60;;;;;;;22.65;20.89;99855.44;5009856;28;20155;-61
2021/03/26 07:00:10;;;;;;;22.02;12.05;;;;;;;21.27;21.83;99851.22;5007553;28;20029;-62
2021/03/26 07:03:06;;;;;;;25.40;12.63;;;;;;;20.35;21.94;99859.69;5009844;28;20140;-62
2021/03/26 07:05:35;;;;;;;19.88;12.88;;;;;;;19.03;23.76;99854.31;4997709;28;20192;-61
2021/03/26 07:08:19;;;;;;;20.65;12.35;;;;;;;18.25;24.97;99853.25;5024732;28;20449;-61
2021/03/26 07:11:08;;;;;;;22.08;11.80;;;;;;;18.85;24.22;99851.03;5009446;28;20037;-61
2021/03/26 07:14:01;;;;;;;16.38;12.15;;;;;;;21.50;21.52;99848.31;5002609;28;20065;-60
2021/03/26 07:16:52;;;;;;;16.40;12.23;;;;;;;24.98;17.97;99859.50;5001274;28;20061;-64
2021/03/26 07:19:39;;;;;;;24.23;13.10;;;;;;;28.10;14.97;99853.13;5009050;28;20029;-61
2021/03/26 07:22:58;;;;;;;19.20;12.43;;;;;;;31.74;13.42;99853.09;5009335;28;20057;-63
2021/03/26 07:25:48;;;;;;;18.63;12.40;;;;;;;33.41;10.14;99852.81;4994667;28;20580;-63
2021/03/26 07:28:35;;;;;;;18.92;12.25;;;;;;;34.80;9.94;99856.53;5009264;28;20038;-60
2021/03/26 07:31:25;;;;;;;14.63;11.65;;;;;;;35.13;9.51;99854.13;5007504;28;20030;-60
2021/03/26 07:33:56;;;;;;;17.60;11.68;;;;;;;35.11;9.31;99854.44;5007144;28;20513;-60
2021/03/26 07:37:04;;;;;;;14.90;11.10;;;;;;;36.47;9.31;99858.56;5008965;28;20333;-60
2021/03/26 07:39:38;;;;;;;16.52;11.43;;;;;;;36.17;8.48;99859.72;5026254;28;20118;-63
2021/03/26 07:42:32;;;;;;;15.30;11.30;;;;;;;36.35;7.70;99872.06;5010650;28;20049;-63
2021/03/26 07:45:09;;;;;;;14.60;11.57;;;;;;;35.85;8.54;99869.50;5003892;28;20057;-63
2021/03/26 07:47:44;;;;;;;15.10;11.00;;;;;;;35.75;8.68;99873.22;5008855;28;20492;-66
2021/03/26 07:50:28;;;;;;;16.10;10.02;;;;;;;35.69;9.07;99877.97;5007685;28;20045;-63
2021/03/26 07:53:04;;;;;;;16.38;10.95;;;;;;;34.51;9.15;99837.75;5007283;28;20053;-62
2021/03/26 07:55:38;;;;;;;14.38;10.77;;;;;;;33.48;9.48;99878.38;4994215;28;20026;-64
2021/03/26 07:58:23;;;;;;;14.47;10.77;;;;;;;32.73;9.87;99880.34;5008087;28;20045;-67
2021/03/26 08:01:16;;;;;;;14.57;9.35;;;;;;;31.68;10.70;99876.31;5010910;28;20064;-64
2021/03/26 08:04:23;;;;;;;11.43;8.77;;;;;;;30.02;11.73;99879.81;4999324;28;20030;-66
2021/03/26 08:07:45;;;;;;;10.07;8.93;;;;;;;28.33;12.92;99880.66;5014659;28;20070;-64
2021/03/26 08:10:24;;;;;;;11.80;9.90;;;;;;;26.24;14.40;99890.94;5002189;28;20034;-63
2021/03/26 08:13:13;;;;;;;16.33;12.23;;;;;;;24.50;15.73;99836.94;5009327;28;20092;-63
2021/03/26 08:16:00;;;;;;;15.15;10.70;;;;;;;23.77;16.44;99887.94;5000971;28;20121;-61
2021/03/26 08:18:53;;;;;;;11.57;9.30;;;;;;;23.18;17.19;99878.56;5012256;28;20034;-66
2021/03/26 08:21:49;;;;;;;15.80;8.98;;;;;;;22.56;18.09;99890.25;5012259;28;20037;-65
2021/03/26 08:24:23;;;;;;;16.05;11.27;;;;;;;21.76;18.77;99887.75;5011837;28;20046;-65
2021/03/26 08:27:16;;;;;;;15.25;11.65;;;;;;;20.99;19.86;99896.38;5012058;28;20030;-66
2021/03/26 08:29:55;;;;;;;19.05;10.70;;;;;;;20.36;20.54;99891.28;5001516;28;20173;-64
2021/03/26 08:33:02;;;;;;;15.45;10.57;;;;;;;19.98;21.06;99889.47;5012191;28;20045;-63
2021/03/26 08:35:46;;;;;;;14.88;10.88;;;;;;;18.65;21.64;99732.13;5011677;28;20065;-62
2021/03/26 08:38:50;;;;;;;17.83;11.10;;;;;;;19.48;21.88;99884.41;5011570;28;20057;-65
2021/03/26 08:41:25;;;;;;;17.02;11.15;;;;;;;19.21;22.12;99893.91;5010477;28;20046;-65
2021/03/26 08:43:54;;;;;;;13.85;9.75;;;;;;;18.86;22.62;99896.09;5009571;28;20072;-67
2021/03/26 08:46:24;;;;;;;15.55;9.82;;;;;;;17.97;23.38;99802.16;5008285;28;20048;-70
2021/03/26 08:49:09;;;;;;;18.85;9.77;;;;;;;17.95;23.97;99856.50;5010792;28;20045;-69
2021/03/26 08:52:12;;;;;;;14.77;9.65;;;;;;;17.70;24.24;99880.91;5002346;28;20034;-70
2021/03/26 08:55:20;;;;;;;17.42;9.70;;;;;;;17.13;25.47;99876.28;5005012;28;20037;-63
2021/03/26 08:58:03;;;;;;;14.45;8.73;;;;;;;16.72;25.83;99885.91;5009600;28;20502;-64
2021/03/26 09:00:50;;;;;;;18.00;9.65;;;;;;;16.46;26.16;99870.59;5002413;28;20064;-67
2021/03/26 09:03:21;;;;;;;19.55;10.50;;;;;;;16.33;26.76;99887.25;5005387;28;20038;-67
2021/03/26 09:06:12;;;;;;;15.65;9.82;;;;;;;16.19;27.15;99885.13;5009186;28;20497;-70
2021/03/26 09:08:40;;;;;;;18.17;10.40;;;;;;;16.15;27.07;99883.75;5003451;28;20521;-65
2021/03/26 09:11:11;;;;;;;16.38;10.68;;;;;;;16.10;27.04;99886.09;5004253;28;20049;-64
2021/03/26 09:14:24;;;;;;;18.58;9.95;;;;;;;16.17;27.31;99890.69;5004308;28;20176;-64
2021/03/26 09:17:10;;;;;;;19.30;11.00;;;;;;;16.00;27.73;99894.28;5035555;28;20437;-63
2021/03/26 09:20:02;;;;;;;16.60;11.13;;;;;;;15.84;27.67;99887.72;5004932;28;20436;-69
2021/03/26 09:23:05;;;;;;;18.92;11.57;;;;;;;15.61;28.49;99890.91;5006339;28;20539;-64
2021/03/26 09:25:48;;;;;;;21.30;12.75;;;;;;;15.29;28.86;99876.13;5003905;28;21662;-66
2021/03/26 09:28:22;;;;;;;21.73;13.02;;;;;;;15.18;29.20;99890.66;5004139;28;20125;-67
2021/03/26 09:31:02;;;;;;;18.15;12.38;;;;;;;14.46;29.86;99780.00;5005033;28;20091;-63
2021/03/26 09:33:28;;;;;;;18.45;12.15;;;;;;;15.15;29.36;99884.72;5001714;28;20539;-63
2021/03/26 09:36:01;;;;;;;19.23;12.40;;;;;;;15.42;29.42;99896.44;5016174;28;20065;-64
2021/03/26 09:38:40;;;;;;;20.40;12.70;;;;;;;15.71;28.87;99884.59;5003698;28;20490;-63
2021/03/26 09:41:29;;;;;;;17.80;12.30;;;;;;;15.88;28.83;99889.13;5004355;28;20041;-66
2021/03/26 09:44:04;;;;;;;22.10;13.48;;;;;;;16.09;28.46;99892.50;5015315;28;20033;-62
2021/03/26 09:46:44;;;;;;;18.93;12.97;;;;;;;16.22;28.22;99890.19;5004650;28;20046;-64
2021/03/26 09:49:32;;;;;;;21.55;12.50;;;;;;;16.16;28.25;99889.00;5004915;28;20056;-64
2021/03/26 09:52:29;;;;;;;19.05;11.23;;;;;;;15.93;28.52;99894.94;5010866;28;20034;-61
2021/03/26 09:55:00;;;;;;;;;;;;;;;16.21;28.56;99881.28;5009464;28;20391;-64
2021/03/26 09:57:32;;;;;;;15.02;10.43;;;;;;;15.88;28.74;99878.31;5000458;28;20460;-63
2021/03/26 10:00:22;;;;;;;13.65;10.38;;;;;;;15.97;29.14;99878.41;5008657;28;20038;-62
2021/03/26 10:03:20;;;;;;;20.70;10.85;;;;;;;16.12;28.61;99876.81;5006899;28;20048;-64
2021/03/26 10:05:59;;;;;;;15.38;10.25;;;;;;;16.18;28.73;99873.50;5000472;28;20089;-63
2021/03/26 10:11:26;;;;;;;14.93;10.45;;;;;;;16.10;28.11;99821.28;5008802;28;20092;-66
2021/03/26 10:13:55;;;;;;;13.40;10.10;;;;;;;16.15;28.42;99871.06;5007652;28;20038;-62
2021/03/26 10:16:35;;;;;;;17.10;10.48;;;;;;;16.07;28.58;99873.72;5009949;28;20038;-65
2021/03/26 10:19:16;;;;;;;17.85;10.38;;;;;;;15.92;28.98;99855.44;5009603;28;20037;-64
2021/03/26 10:21:55;;;;;;;16.58;10.30;;;;;;;16.14;29.02;99861.28;5004449;28;20128;-62
2021/03/26 10:24:31;;;;;;;16.65;10.43;;;;;;;16.29;28.72;99874.22;5009764;28;20073;-60
2021/03/26 10:27:10;;;;;;;19.27;10.27;;;;;;;16.39;28.51;99874.94;5010076;28;20073;-58
2021/03/26 10:29:50;;;;;;;15.50;10.27;;;;;;;16.39;28.96;99868.69;5006593;28;20037;-58
2021/03/26 10:32:17;;;;;;;17.25;9.93;;;;;;;16.29;28.73;99885.00;5009932;28;20422;-58
2021/03/26 10:34:44;;;;;;;19.08;10.82;;;;;;;16.19;28.70;99866.22;5009727;28;20040;-60
2021/03/26 10:37:26;;;;;;;14.88;10.20;;;;;;;16.26;29.08;99859.16;5010019;28;20100;-58
2021/03/26 10:39:58;;;;;;;16.98;10.30;;;;;;;16.10;28.94;99843.72;5008809;28;20040;-61
2021/03/26 10:42:52;;;;;;;13.85;9.85;;;;;;;16.16;29.17;99862.00;5009775;28;20041;-60
2021/03/26 10:45:55;;;;;;;16.23;10.70;;;;;;;16.23;28.92;99867.59;5009102;28;20091;-60
2021/03/26 10:48:42;;;;;;;18.50;10.18;;;;;;;16.27;29.47;99857.31;5009843;28;20525;-57
2021/03/26 10:51:24;;;;;;;18.58;9.00;;;;;;;16.25;29.15;99864.75;5008313;28;20541;-58
2021/03/26 10:54:10;;;;;;;12.70;9.98;;;;;;;16.32;29.13;99863.06;5009900;28;20052;-60
2021/03/26 10:56:43;;;;;;;;;;;;;;;16.75;28.29;99868.50;5009872;28;20029;-61
2021/03/26 10:59:24;;;;;;;14.30;9.57;;;;;;;16.50;28.99;99865.69;5009744;28;19917;-59
2021/03/26 11:02:24;;;;;;;11.90;9.20;;;;;;;16.44;28.82;99875.31;5007528;28;20041;-60
2021/03/26 11:05:31;;;;;;;11.88;8.57;;;;;;;16.25;29.40;99856.63;5007099;28;20042;-65
2021/03/26 11:08:00;;;;;;;12.60;8.90;;;;;;;16.14;29.22;99863.16;5007355;28;20073;-67
2021/03/26 11:10:35;;;;;;;17.73;9.55;;;;;;;15.91;30.06;99864.53;5009062;28;20033;-68
2021/03/26 11:13:10;;;;;;;15.93;9.55;;;;;;;15.86;29.89;99853.31;5008791;28;20045;-64
2021/03/26 11:15:38;;;;;;;;;;;;;;;16.38;29.16;99862.44;5005374;28;20411;-65
2021/03/26 11:18:12;;;;;;;14.93;8.95;;;;;;;16.26;29.43;99855.63;5007327;28;19925;-65
2021/03/26 11:20:43;;;;;;;16.33;9.48;;;;;;;16.20;29.68;99859.81;5007904;28;20560;-66
2021/03/26 11:23:23;;;;;;;17.88;11.57;;;;;;;16.18;29.76;99854.59;5009232;28;20425;-67
2021/03/26 11:25:53;;;;;;;16.67;9.55;;;;;;;16.04;29.95;99830.84;5007500;28;20056;-66
2021/03/26 11:28:41;;;;;;;17.45;9.90;;;;;;;15.73;29.70;99772.75;5002386;28;20046;-68
2021/03/26 11:31:21;;;;;;;14.05;8.73;;;;;;;16.06;30.00;99850.44;5006911;28;20073;-65
2021/03/26 11:33:49;;;;;;;15.55;9.40;;;;;;;15.88;30.07;99845.94;5011742;28;20041;-63
2021/03/26 11:36:33;;;;;;;12.15;8.75;;;;;;;15.78;30.32;99854.09;5013421;28;20079;-63
2021/03/26 11:39:12;;;;;;;12.07;7.97;;;;;;;15.44;30.39;99835.94;5013649;28;20048;-62
2021/03/26 11:42:06;;;;;;;14.27;8.50;;;;;;;15.64;30.35;99860.91;5010164;28;20041;-68
2021/03/26 11:44:37;;;;;;;14.70;8.63;;;;;;;15.50;30.66;99853.38;5008758;28;20040;-67
2021/03/26 11:47:13;;;;;;;17.25;9.07;;;;;;;15.13;31.20;99803.13;5012580;28;20038;-68
2021/03/26 11:49:42;;;;;;;15.35;8.90;;;;;;;15.52;30.89;99864.00;5003776;28;20025;-66
2021/03/26 11:52:15;;;;;;;12.63;9.25;;;;;;;15.49;30.91;99838.19;5010084;28;20038;-66
2021/03/26 11:54:52;;;;;;;12.23;8.23;;;;;;;15.57;30.75;99851.75;5009555;28;20070;-67
2021/03/26 11:57:20;;;;;;;12.63;8.48;;;;;;;15.53;30.94;99855.75;5012558;28;20049;-65
2021/03/26 12:00:07;;;;;;;12.80;7.95;;;;;;;15.35;30.88;99810.75;5012851;28;20092;-66
2021/03/26 12:02:41;;;;;;;14.38;8.82;;;;;;;15.51;30.57;99852.38;5012482;28;20498;-64
2021/03/26 12:05:19;;;;;;;12.52;8.18;;;;;;;15.53;30.50;99852.19;5012188;28;20030;-69
2021/03/26 12:07:56;;;;;;;14.25;8.68;;;;;;;15.38;30.52;99851.91;5007151;28;20124;-68
2021/03/26 12:10:41;;;;;;;12.82;7.18;;;;;;;15.45;30.41;99867.31;5012648;28;20034;-66
2021/03/26 12:13:28;;;;;;;13.43;7.88;;;;;;;15.35;30.36;99853.06;5012478;28;20076;-69
2021/03/26 12:16:01;;;;;;;9.95;7.22;;;;;;;14.87;30.61;99820.06;5027514;28;20517;-75
2021/03/26 12:19:03;;;;;;;13.40;7.57;;;;;;;14.95;30.54;99847.13;5007002;28;20034;-71
2021/03/26 12:21:48;;;;;;;10.93;7.25;;;;;;;14.85;30.67;99841.78;5010581;28;20124;-71
2021/03/26 12:24:23;;;;;;;9.48;6.88;;;;;;;14.81;30.76;99837.69;5004225;28;20136;-69